createdAt,value
2018-08-31T00:02:29.825Z,11.30
2018-08-31T00:05:41.765Z,11.87
2018-08-31T00:08:21.394Z,11.93
2018-08-31T00:12:58.284Z,11.47
2018-08-31T00:15:26.672Z,12.17
2018-08-31T00:17:55.120Z,11.80
2018-08-31T00:20:23.498Z,10.20
2018-08-31T00:22:51.952Z,11.93
2018-08-31T00:26:04.277Z,12.00
2018-08-31T00:28:43.999Z,11.17
2018-08-31T00:33:31.113Z,11.23
2018-08-31T00:38:14.588Z,12.33
2018-08-31T00:40:53.341Z,12.87
2018-08-31T00:45:37.857Z,12.30
2018-08-31T00:48:06.731Z,12.63
2018-08-31T00:50:35.413Z,12.53
2018-08-31T00:53:04.420Z,13.93
2018-08-31T00:55:33.001Z,13.33
2018-08-31T00:58:01.462Z,12.93
2018-08-31T01:00:29.937Z,12.57
2018-08-31T01:02:58.372Z,12.97
2018-08-31T01:05:26.797Z,11.57
2018-08-31T01:07:55.241Z,11.60
2018-08-31T01:10:24.689Z,13.30
2018-08-31T01:12:54.209Z,11.23
2018-08-31T01:15:22.765Z,12.43
2018-08-31T01:17:51.187Z,13.53
2018-08-31T01:20:19.664Z,13.20
2018-08-31T01:22:48.117Z,13.80
2018-08-31T01:25:16.657Z,14.70
2018-08-31T01:27:45.075Z,13.33
2018-08-31T01:30:13.558Z,13.93
2018-08-31T01:32:42.000Z,12.97
2018-08-31T01:35:10.549Z,14.17
2018-08-31T01:37:38.956Z,15.40
2018-08-31T01:40:07.481Z,13.70
2018-08-31T01:42:35.960Z,13.63
2018-08-31T01:45:04.482Z,11.83
2018-08-31T01:47:33.317Z,14.53
2018-08-31T01:50:01.832Z,12.17
2018-08-31T01:52:30.338Z,12.60
2018-08-31T01:54:58.777Z,11.73
2018-08-31T01:57:27.318Z,12.43
2018-08-31T01:59:55.738Z,14.03
2018-08-31T02:02:24.697Z,12.13
2018-08-31T02:04:53.976Z,13.03
2018-08-31T02:07:22.395Z,12.10
2018-08-31T02:09:50.821Z,12.57
2018-08-31T02:12:19.276Z,13.17
2018-08-31T02:14:47.665Z,14.30
2018-08-31T02:17:16.122Z,13.23
2018-08-31T02:19:44.569Z,14.47
2018-08-31T02:22:13.073Z,11.67
2018-08-31T02:24:41.465Z,15.67
2018-08-31T02:27:09.902Z,13.13
2018-08-31T02:29:38.329Z,13.17
2018-08-31T02:32:06.768Z,15.30
2018-08-31T02:34:35.161Z,13.73
2018-08-31T02:37:03.587Z,13.10
2018-08-31T02:39:32.029Z,14.70
2018-08-31T02:42:00.637Z,13.20
2018-08-31T02:44:29.064Z,15.53
2018-08-31T02:46:57.461Z,16.60
2018-08-31T02:49:25.911Z,17.20
2018-08-31T02:51:54.361Z,15.63
2018-08-31T02:54:22.807Z,17.17
2018-08-31T02:56:51.221Z,15.20
2018-08-31T02:59:19.649Z,16.13
2018-08-31T03:01:48.049Z,14.27
2018-08-31T03:04:16.674Z,15.63
2018-08-31T03:06:45.070Z,14.80
2018-08-31T03:09:13.510Z,17.67
2018-08-31T03:11:42.056Z,14.53
2018-08-31T03:14:10.817Z,15.33
2018-08-31T03:16:39.217Z,15.17
2018-08-31T03:19:07.672Z,14.30
2018-08-31T03:21:36.078Z,16.10
2018-08-31T03:24:04.553Z,14.33
2018-08-31T03:26:32.978Z,16.13
2018-08-31T03:29:01.465Z,16.03
2018-08-31T03:31:29.888Z,14.83
2018-08-31T03:33:58.321Z,14.97
2018-08-31T03:36:26.756Z,15.03
2018-08-31T03:38:55.180Z,16.40
2018-08-31T03:41:23.581Z,15.27
2018-08-31T03:43:52.007Z,14.13
2018-08-31T03:46:20.457Z,14.63
2018-08-31T03:48:48.916Z,17.93
2018-08-31T03:51:17.364Z,16.77
2018-08-31T03:53:45.801Z,17.20
2018-08-31T03:56:14.258Z,18.13
2018-08-31T03:58:42.661Z,16.40
2018-08-31T04:01:11.089Z,16.37
2018-08-31T04:03:39.495Z,15.33
2018-08-31T04:06:07.943Z,15.60
2018-08-31T04:08:36.388Z,16.67
2018-08-31T04:11:04.860Z,14.47
2018-08-31T04:13:33.277Z,14.83
2018-08-31T04:16:01.705Z,17.23
2018-08-31T04:18:30.112Z,18.07
2018-08-31T04:20:58.568Z,21.13
2018-08-31T04:23:26.994Z,16.17
2018-08-31T04:25:55.413Z,16.30
2018-08-31T04:28:23.799Z,17.40
2018-08-31T04:30:52.497Z,18.57
2018-08-31T04:33:20.905Z,14.53
2018-08-31T04:35:49.294Z,18.07
2018-08-31T04:38:17.717Z,14.57
2018-08-31T04:40:46.185Z,17.03
2018-08-31T04:43:14.662Z,14.90
2018-08-31T04:45:43.100Z,15.87
2018-08-31T04:48:11.644Z,14.57
2018-08-31T04:50:40.114Z,15.67
2018-08-31T04:53:08.633Z,15.53
2018-08-31T04:55:37.042Z,15.40
2018-08-31T04:58:05.540Z,15.97
2018-08-31T05:00:33.942Z,16.90
2018-08-31T05:03:02.409Z,16.10
2018-08-31T05:05:30.797Z,14.63
2018-08-31T05:07:59.217Z,14.57
2018-08-31T05:10:27.653Z,17.33
2018-08-31T05:12:56.137Z,15.97
2018-08-31T05:15:24.525Z,18.73
2018-08-31T05:17:52.965Z,17.23
2018-08-31T05:20:21.354Z,17.03
2018-08-31T05:22:49.797Z,15.53
2018-08-31T05:25:18.164Z,16.53
2018-08-31T05:27:46.574Z,19.90
2018-08-31T05:30:15.027Z,20.10
2018-08-31T05:32:43.406Z,17.27
2018-08-31T05:35:11.836Z,17.10
2018-08-31T05:37:40.310Z,18.27
2018-08-31T05:40:08.795Z,21.20
2018-08-31T05:42:37.205Z,20.57
2018-08-31T05:45:05.889Z,20.80
2018-08-31T05:47:34.304Z,18.73
2018-08-31T05:50:02.729Z,21.87
2018-08-31T05:52:31.117Z,19.13
2018-08-31T05:54:59.533Z,20.73
2018-08-31T05:57:27.920Z,22.03
2018-08-31T05:59:56.366Z,23.43
2018-08-31T06:02:24.769Z,22.87
2018-08-31T06:04:53.219Z,22.13
2018-08-31T06:07:21.601Z,22.53
2018-08-31T06:09:50.041Z,19.67
2018-08-31T06:12:18.441Z,22.63
2018-08-31T06:14:46.841Z,22.87
2018-08-31T06:17:15.235Z,23.03
2018-08-31T06:19:43.672Z,20.30
2018-08-31T06:22:12.189Z,20.20
2018-08-31T06:24:40.588Z,21.23
2018-08-31T06:27:09.058Z,22.53
2018-08-31T06:29:37.488Z,23.83
2018-08-31T06:32:05.955Z,26.27
2018-08-31T06:34:34.368Z,27.33
2018-08-31T06:37:02.799Z,21.60
2018-08-31T06:39:31.197Z,23.73
2018-08-31T06:42:00.199Z,24.07
2018-08-31T06:44:28.594Z,24.13
2018-08-31T06:46:57.046Z,22.47
2018-08-31T06:49:25.435Z,22.20
2018-08-31T06:51:53.888Z,23.23
2018-08-31T06:54:22.288Z,22.87
2018-08-31T06:56:50.848Z,25.77
2018-08-31T06:59:19.248Z,23.73
2018-08-31T07:01:47.702Z,22.47
2018-08-31T07:04:16.175Z,25.10
2018-08-31T07:06:44.621Z,23.33
2018-08-31T07:09:13.001Z,20.83
2018-08-31T07:11:41.436Z,25.57
2018-08-31T07:14:10.121Z,23.70
2018-08-31T07:16:38.571Z,23.87
2018-08-31T07:19:07.330Z,23.07
2018-08-31T07:21:35.761Z,23.87
2018-08-31T07:24:04.217Z,25.77
2018-08-31T07:26:32.711Z,21.70
2018-08-31T07:29:01.089Z,22.00
2018-08-31T07:31:29.602Z,21.63
2018-08-31T07:33:58.054Z,25.83
2018-08-31T07:36:26.503Z,25.50
2018-08-31T07:38:54.924Z,24.13
2018-08-31T07:41:23.318Z,22.53
2018-08-31T07:43:51.827Z,20.67
2018-08-31T07:46:20.246Z,21.23
2018-08-31T07:48:48.715Z,21.70
2018-08-31T07:51:17.117Z,23.10
2018-08-31T07:53:45.573Z,24.13
2018-08-31T07:56:13.959Z,23.97
2018-08-31T07:58:42.465Z,21.70
2018-08-31T08:01:10.865Z,23.90
2018-08-31T08:03:39.307Z,23.93
2018-08-31T08:06:07.726Z,24.43
2018-08-31T08:08:36.177Z,24.50
2018-08-31T08:11:04.608Z,25.17
2018-08-31T08:13:33.089Z,24.97
2018-08-31T08:16:01.485Z,21.07
2018-08-31T08:18:29.921Z,23.43
2018-08-31T08:20:58.389Z,25.37
2018-08-31T08:23:26.903Z,20.80
2018-08-31T08:25:55.337Z,23.77
2018-08-31T08:28:23.799Z,24.87
2018-08-31T08:30:52.287Z,24.83
2018-08-31T08:33:20.731Z,22.73
2018-08-31T08:35:49.297Z,24.00
2018-08-31T08:38:17.785Z,23.73
2018-08-31T08:40:46.233Z,23.37
2018-08-31T08:43:14.664Z,25.73
2018-08-31T08:45:43.098Z,25.63
2018-08-31T08:48:11.608Z,23.83
2018-08-31T08:50:40.046Z,24.80
2018-08-31T08:53:08.444Z,25.37
2018-08-31T08:55:36.889Z,24.30
2018-08-31T08:58:05.400Z,25.90
2018-08-31T09:00:33.816Z,25.07
2018-08-31T09:03:02.249Z,25.23
2018-08-31T09:05:30.698Z,27.10
2018-08-31T09:07:59.120Z,23.37
2018-08-31T09:10:27.556Z,28.17
2018-08-31T09:12:55.973Z,25.40
2018-08-31T09:15:24.413Z,29.37
2018-08-31T09:17:53.376Z,26.20
2018-08-31T09:20:21.993Z,25.60
2018-08-31T09:22:50.293Z,28.10
2018-08-31T09:25:18.760Z,24.20
2018-08-31T09:27:47.175Z,25.57
2018-08-31T09:30:21.003Z,25.60
2018-08-31T09:32:49.460Z,28.13
2018-08-31T09:35:17.909Z,27.63
2018-08-31T09:37:46.355Z,27.70
2018-08-31T09:40:14.762Z,26.00
2018-08-31T09:42:43.204Z,26.43
2018-08-31T09:45:11.642Z,23.03
2018-08-31T09:47:40.088Z,29.73
2018-08-31T09:50:08.518Z,26.13
2018-08-31T09:52:36.946Z,27.50
2018-08-31T09:55:05.917Z,24.17
2018-08-31T09:57:34.406Z,32.50
2018-08-31T10:00:02.792Z,26.87
2018-08-31T10:02:36.321Z,24.87
2018-08-31T10:05:04.740Z,22.87
2018-08-31T10:07:33.201Z,23.37
2018-08-31T10:10:01.618Z,21.80
2018-08-31T10:12:30.065Z,22.70
2018-08-31T10:14:58.467Z,25.63
2018-08-31T10:17:26.941Z,22.63
2018-08-31T10:19:55.405Z,21.70
2018-08-31T10:22:23.873Z,20.27
2018-08-31T10:24:52.305Z,21.23
2018-08-31T10:27:20.718Z,21.27
2018-08-31T10:29:49.148Z,23.10
2018-08-31T10:32:17.544Z,22.60
2018-08-31T10:34:46.009Z,21.33
2018-08-31T10:37:14.406Z,23.00
2018-08-31T10:39:42.862Z,23.90
2018-08-31T10:42:11.253Z,26.57
2018-08-31T10:44:39.692Z,23.60
2018-08-31T10:47:08.127Z,24.13
2018-08-31T10:49:36.551Z,23.93
2018-08-31T10:52:05.026Z,23.90
2018-08-31T10:54:33.502Z,24.13
2018-08-31T10:57:01.918Z,23.77
2018-08-31T10:59:30.369Z,20.93
2018-08-31T11:01:58.770Z,24.00
2018-08-31T11:04:27.193Z,25.03
2018-08-31T11:06:55.586Z,25.27
2018-08-31T11:09:24.055Z,25.90
2018-08-31T11:11:52.481Z,26.43
2018-08-31T11:14:20.916Z,22.23
2018-08-31T11:16:49.349Z,23.90
2018-08-31T11:19:17.813Z,21.60
2018-08-31T11:21:46.223Z,21.00
2018-08-31T11:24:14.675Z,22.33
2018-08-31T11:26:43.129Z,24.77
2018-08-31T11:29:11.542Z,23.57
2018-08-31T11:31:39.986Z,20.00
2018-08-31T11:34:08.474Z,18.60
2018-08-31T11:36:36.897Z,17.30
2018-08-31T11:39:08.265Z,15.53
2018-08-31T11:41:36.881Z,16.97
2018-08-31T11:44:05.404Z,14.00
2018-08-31T11:46:33.865Z,13.90
2018-08-31T11:49:02.333Z,13.03
2018-08-31T11:51:30.785Z,14.03
2018-08-31T11:53:59.172Z,13.47
2018-08-31T11:56:27.632Z,20.87
2018-08-31T11:58:56.041Z,17.43
2018-08-31T12:01:24.512Z,14.23
2018-08-31T12:03:52.934Z,15.37
2018-08-31T12:06:21.378Z,16.13
2018-08-31T12:08:49.797Z,12.50
2018-08-31T12:11:18.185Z,15.57
2018-08-31T12:13:46.636Z,14.03
2018-08-31T12:16:15.044Z,15.90
2018-08-31T12:18:43.460Z,15.23
2018-08-31T12:21:11.888Z,14.60
2018-08-31T12:23:40.323Z,13.20
2018-08-31T12:26:08.725Z,17.40
2018-08-31T12:28:37.152Z,14.63
2018-08-31T12:31:05.771Z,14.17
2018-08-31T12:33:35.042Z,13.67
2018-08-31T12:36:03.505Z,16.97
2018-08-31T12:38:31.934Z,14.83
2018-08-31T12:41:00.353Z,14.03
2018-08-31T12:43:28.789Z,14.67
2018-08-31T12:45:57.208Z,14.23
2018-08-31T12:48:25.927Z,14.93
2018-08-31T12:50:54.346Z,14.80
2018-08-31T12:53:22.826Z,14.80
2018-08-31T12:55:51.268Z,14.40
2018-08-31T12:58:19.677Z,15.23
2018-08-31T13:00:48.121Z,14.20
2018-08-31T13:03:16.519Z,13.50
2018-08-31T13:05:44.941Z,14.87
2018-08-31T13:08:13.350Z,17.90
2018-08-31T13:10:41.805Z,16.13
2018-08-31T13:13:10.220Z,16.00
2018-08-31T13:15:44.206Z,16.40
2018-08-31T13:18:12.607Z,16.10
2018-08-31T13:20:41.073Z,12.93
2018-08-31T13:23:09.481Z,16.67
2018-08-31T13:25:37.898Z,15.90
2018-08-31T13:28:06.308Z,14.53
2018-08-31T13:30:34.770Z,16.17
2018-08-31T13:33:03.189Z,13.03
2018-08-31T13:35:31.622Z,15.00
2018-08-31T13:38:00.067Z,14.93
2018-08-31T13:40:28.513Z,13.00
2018-08-31T13:42:56.908Z,14.40
2018-08-31T13:45:25.618Z,15.77
2018-08-31T13:47:54.034Z,15.13
2018-08-31T13:50:22.472Z,15.97
2018-08-31T13:52:50.934Z,15.30
2018-08-31T13:55:19.320Z,14.90
2018-08-31T13:57:47.799Z,13.30
2018-08-31T14:00:16.269Z,13.30
2018-08-31T14:02:44.734Z,14.27
2018-08-31T14:05:13.162Z,13.67
2018-08-31T14:07:41.656Z,13.73
2018-08-31T14:10:10.100Z,12.77
2018-08-31T14:12:38.593Z,14.77
2018-08-31T14:15:07.061Z,14.93
2018-08-31T14:17:35.533Z,13.63
2018-08-31T14:20:04.009Z,13.23
2018-08-31T14:22:32.436Z,14.90
2018-08-31T14:25:00.841Z,14.43
2018-08-31T14:27:29.380Z,14.50
2018-08-31T14:29:57.971Z,14.67
2018-08-31T14:32:26.331Z,17.17
2018-08-31T14:34:54.745Z,15.50
2018-08-31T14:37:23.191Z,17.47
2018-08-31T14:39:51.623Z,16.23
2018-08-31T14:42:20.089Z,17.33
2018-08-31T14:44:48.509Z,18.23
2018-08-31T14:47:16.917Z,18.20
2018-08-31T14:49:45.435Z,15.67
2018-08-31T14:52:13.837Z,16.70
2018-08-31T14:54:42.260Z,14.57
2018-08-31T14:57:10.702Z,14.90
2018-08-31T14:59:39.170Z,15.23
2018-08-31T15:02:07.594Z,15.50
2018-08-31T15:04:36.081Z,15.73
2018-08-31T15:07:04.757Z,15.93
2018-08-31T15:09:33.213Z,15.50
2018-08-31T15:12:01.636Z,15.43
2018-08-31T15:14:30.068Z,15.90
2018-08-31T15:16:58.488Z,16.80
2018-08-31T15:19:26.973Z,15.03
2018-08-31T15:21:55.380Z,17.17
2018-08-31T15:24:23.826Z,16.30
2018-08-31T15:26:52.287Z,16.33
2018-08-31T15:29:20.732Z,16.63
2018-08-31T15:31:49.153Z,14.33
2018-08-31T15:34:17.632Z,15.17
2018-08-31T15:36:46.199Z,15.50
2018-08-31T15:39:15.210Z,15.97
2018-08-31T15:41:43.666Z,13.50
2018-08-31T15:44:12.323Z,15.47
2018-08-31T15:46:40.785Z,18.53
2018-08-31T15:49:09.265Z,15.13
2018-08-31T15:51:37.761Z,16.20
2018-08-31T15:54:06.161Z,15.27
2018-08-31T15:56:34.585Z,16.23
2018-08-31T15:59:03.005Z,14.07
2018-08-31T16:01:31.436Z,15.57
2018-08-31T16:03:59.841Z,14.77
2018-08-31T16:06:28.382Z,15.90
2018-08-31T16:08:56.774Z,16.17
2018-08-31T16:11:25.215Z,15.50
2018-08-31T16:13:53.625Z,16.03
2018-08-31T16:16:22.093Z,16.27
2018-08-31T16:18:50.558Z,17.73
2018-08-31T16:21:19.007Z,16.67
2018-08-31T16:23:47.585Z,19.17
2018-08-31T16:26:16.002Z,17.20
2018-08-31T16:28:44.426Z,15.83
2018-08-31T16:31:12.940Z,16.47
2018-08-31T16:33:41.381Z,16.63
2018-08-31T16:36:09.794Z,18.27
2018-08-31T16:38:38.239Z,16.50
2018-08-31T16:41:06.937Z,16.50
2018-08-31T16:43:35.372Z,19.50
2018-08-31T16:46:03.890Z,18.43
2018-08-31T16:48:32.333Z,17.63
2018-08-31T16:51:00.765Z,18.53
2018-08-31T16:53:29.222Z,16.70
2018-08-31T16:55:57.665Z,18.53
2018-08-31T16:58:26.157Z,17.50
2018-08-31T17:00:54.525Z,16.50
2018-08-31T17:03:22.985Z,18.03
2018-08-31T17:05:51.391Z,18.70
2018-08-31T17:08:19.855Z,18.10
2018-08-31T17:10:48.273Z,17.63
2018-08-31T17:13:16.703Z,17.10
2018-08-31T17:15:45.117Z,19.53
2018-08-31T17:18:13.572Z,20.40
2018-08-31T17:20:41.969Z,17.87
2018-08-31T17:23:10.437Z,18.93
2018-08-31T17:25:38.861Z,17.13
2018-08-31T17:28:12.973Z,19.83
2018-08-31T17:30:41.416Z,20.20
2018-08-31T17:33:15.276Z,21.40
2018-08-31T17:35:49.014Z,21.53
2018-08-31T17:38:17.489Z,19.30
2018-08-31T17:40:45.872Z,21.37
2018-08-31T17:43:14.302Z,20.07
2018-08-31T17:45:49.279Z,22.07
2018-08-31T17:48:17.712Z,21.57
2018-08-31T17:50:46.182Z,21.67
2018-08-31T17:53:14.594Z,25.73
2018-08-31T17:55:43.089Z,22.73
2018-08-31T17:58:11.527Z,21.67
2018-08-31T18:00:39.961Z,20.90
2018-08-31T18:03:08.386Z,21.87
2018-08-31T18:05:36.829Z,20.90
2018-08-31T18:08:05.427Z,24.40
2018-08-31T18:10:33.857Z,22.83
2018-08-31T18:13:02.273Z,21.10
2018-08-31T18:15:30.787Z,22.50
2018-08-31T18:17:59.187Z,23.97
2018-08-31T18:20:27.626Z,24.03
2018-08-31T18:23:02.742Z,22.90
2018-08-31T18:25:31.197Z,20.70
2018-08-31T18:27:59.621Z,22.93
2018-08-31T18:30:28.128Z,24.43
2018-08-31T18:32:56.552Z,21.07
2018-08-31T18:35:25.002Z,21.83
2018-08-31T18:37:53.469Z,23.03
2018-08-31T18:40:21.876Z,22.67
2018-08-31T18:42:50.421Z,19.77
2018-08-31T18:45:18.826Z,20.63
2018-08-31T18:47:47.307Z,20.10
2018-08-31T18:50:15.788Z,20.23
2018-08-31T18:52:44.232Z,22.80
2018-08-31T18:55:12.636Z,23.70
2018-08-31T18:57:41.101Z,25.33
2018-08-31T19:00:09.777Z,23.23
2018-08-31T19:02:38.208Z,22.13
2018-08-31T19:05:06.666Z,22.97
2018-08-31T19:07:35.097Z,23.57
2018-08-31T19:10:03.500Z,22.73
2018-08-31T19:12:32.025Z,22.83
2018-08-31T19:15:00.421Z,20.03
2018-08-31T19:17:28.845Z,23.80
2018-08-31T19:19:57.236Z,23.13
2018-08-31T19:22:25.703Z,21.83
2018-08-31T19:24:54.114Z,24.57
2018-08-31T19:27:22.573Z,22.87
2018-08-31T19:29:50.991Z,24.97
2018-08-31T19:32:19.430Z,25.40
2018-08-31T19:34:47.909Z,25.57
2018-08-31T19:37:16.338Z,26.77
2018-08-31T19:39:44.765Z,27.60
2018-08-31T19:42:13.140Z,27.40
2018-08-31T19:44:43.561Z,28.67
2018-08-31T19:47:12.041Z,27.03
2018-08-31T19:49:40.531Z,26.60
2018-08-31T19:52:09.044Z,26.40
2018-08-31T19:54:37.525Z,25.90
2018-08-31T19:57:05.985Z,25.70
2018-08-31T19:59:34.444Z,26.57
2018-08-31T20:02:03.046Z,25.63
2018-08-31T20:04:31.670Z,27.97
2018-08-31T20:07:00.198Z,25.10
2018-08-31T20:09:28.777Z,24.40
2018-08-31T20:11:57.218Z,23.10
2018-08-31T20:14:25.700Z,25.40
2018-08-31T20:16:54.480Z,24.70
2018-08-31T20:19:23.058Z,25.47
2018-08-31T20:21:51.481Z,25.00
2018-08-31T20:24:19.893Z,21.10
2018-08-31T20:26:48.408Z,23.90
2018-08-31T20:29:16.845Z,21.60
2018-08-31T20:31:45.777Z,22.73
2018-08-31T20:34:14.176Z,23.40
2018-08-31T20:36:42.696Z,21.50
2018-08-31T20:39:12.931Z,22.77
2018-08-31T20:41:41.757Z,23.17
2018-08-31T20:44:10.663Z,23.27
2018-08-31T20:46:39.177Z,24.33
2018-08-31T20:49:07.604Z,25.27
2018-08-31T20:51:36.059Z,24.43
2018-08-31T20:54:04.569Z,23.83
2018-08-31T20:56:32.965Z,24.67
2018-08-31T20:59:01.389Z,23.87
2018-08-31T21:01:29.870Z,22.80
2018-08-31T21:03:58.345Z,22.80
2018-08-31T21:06:27.784Z,23.63
2018-08-31T21:08:58.417Z,22.87
2018-08-31T21:11:26.920Z,23.30
2018-08-31T21:13:55.324Z,22.73
2018-08-31T21:19:04.470Z,23.23
2018-08-31T21:21:32.950Z,22.30
2018-08-31T21:24:01.413Z,23.53
2018-08-31T21:26:29.935Z,24.20
2018-08-31T21:28:58.713Z,22.30
2018-08-31T21:31:27.378Z,23.77
2018-08-31T21:33:55.913Z,22.90
2018-08-31T21:36:24.392Z,22.50
2018-08-31T21:38:53.896Z,25.53
2018-08-31T21:41:22.419Z,25.63
2018-08-31T21:43:50.871Z,24.13
2018-08-31T21:46:19.301Z,24.87
2018-08-31T21:48:47.761Z,24.70
2018-08-31T21:51:16.232Z,21.57
2018-08-31T21:53:44.684Z,24.17
2018-08-31T21:56:13.145Z,22.53
2018-08-31T21:58:41.610Z,22.83
2018-08-31T22:01:15.260Z,23.70
2018-08-31T22:03:43.702Z,22.90
2018-08-31T22:06:12.120Z,23.10
2018-08-31T22:08:40.569Z,23.70
2018-08-31T22:11:09.108Z,25.47
2018-08-31T22:13:37.575Z,26.03
2018-08-31T22:16:06.110Z,26.23
2018-08-31T22:18:34.625Z,22.97
2018-08-31T22:21:03.847Z,22.03
2018-08-31T22:23:32.289Z,24.13
2018-08-31T22:26:00.757Z,21.47
2018-08-31T22:28:29.168Z,23.70
2018-08-31T22:30:57.666Z,26.43
2018-08-31T22:33:26.057Z,24.00
2018-08-31T22:35:54.483Z,21.30
2018-08-31T22:38:22.866Z,20.30
2018-08-31T22:40:51.292Z,20.70
2018-08-31T22:43:22.558Z,22.07
2018-08-31T22:45:51.044Z,20.40
2018-08-31T22:48:19.458Z,20.97
2018-08-31T22:50:47.888Z,19.80
2018-08-31T22:53:16.325Z,22.07
2018-08-31T22:55:44.750Z,22.27
2018-08-31T22:58:13.153Z,21.67
2018-08-31T23:00:41.609Z,21.83
2018-08-31T23:03:10.054Z,21.60
2018-08-31T23:05:38.502Z,21.17
2018-08-31T23:08:06.913Z,21.80
2018-08-31T23:10:35.333Z,21.47
2018-08-31T23:13:03.972Z,24.33
2018-08-31T23:15:32.393Z,21.20
2018-08-31T23:18:00.836Z,23.90
2018-08-31T23:20:29.317Z,24.33
2018-08-31T23:23:03.125Z,22.40
2018-08-31T23:25:36.834Z,21.20
2018-08-31T23:28:05.319Z,25.97
2018-08-31T23:30:33.724Z,23.53
2018-08-31T23:33:02.338Z,21.93
2018-08-31T23:35:30.745Z,23.40
2018-08-31T23:37:59.197Z,23.17
2018-08-31T23:40:27.595Z,23.60
2018-08-31T23:42:56.082Z,20.40
2018-08-31T23:45:24.497Z,23.60
2018-08-31T23:47:52.942Z,21.00
2018-08-31T23:50:21.389Z,21.47
2018-08-31T23:52:49.831Z,23.67
2018-08-31T23:55:18.229Z,24.17
2018-08-31T23:57:46.689Z,20.73
